sensor_id;sensor_type;location;lat;lon;timestamp;P1;durP1;ratioP1;P2;durP2;ratioP2
17214;SDS011;8723;51.502;6.918;2022-11-09T00:00:48;2.50;;;1.77;;
17214;SDS011;8723;51.502;6.918;2022-11-09T00:03:16;1.92;;;1.70;;
17214;SDS011;8723;51.502;6.918;2022-11-09T00:05:43;1.67;;;1.58;;
17214;SDS011;8723;51.502;6.918;2022-11-09T00:08:10;2.13;;;1.60;;
17214;SDS011;8723;51.502;6.918;2022-11-09T00:10:38;2.70;;;1.60;;
17214;SDS011;8723;51.502;6.918;2022-11-09T00:13:06;2.00;;;1.67;;
17214;SDS011;8723;51.502;6.918;2022-11-09T00:15:33;2.88;;;1.70;;
17214;SDS011;8723;51.502;6.918;2022-11-09T00:18:02;3.90;;;2.05;;
17214;SDS011;8723;51.502;6.918;2022-11-09T00:20:29;2.50;;;1.60;;
17214;SDS011;8723;51.502;6.918;2022-11-09T00:22:56;3.47;;;1.88;;
17214;SDS011;8723;51.502;6.918;2022-11-09T00:25:23;2.80;;;1.85;;
17214;SDS011;8723;51.502;6.918;2022-11-09T00:27:52;2.22;;;1.80;;
17214;SDS011;8723;51.502;6.918;2022-11-09T00:30:19;2.03;;;1.65;;
17214;SDS011;8723;51.502;6.918;2022-11-09T00:32:46;2.83;;;1.75;;
17214;SDS011;8723;51.502;6.918;2022-11-09T00:35:14;3.08;;;1.65;;
17214;SDS011;8723;51.502;6.918;2022-11-09T00:37:41;2.17;;;1.58;;
17214;SDS011;8723;51.502;6.918;2022-11-09T00:40:09;2.07;;;1.70;;
17214;SDS011;8723;51.502;6.918;2022-11-09T00:42:37;1.85;;;1.50;;
17214;SDS011;8723;51.502;6.918;2022-11-09T00:45:06;1.77;;;1.65;;
17214;SDS011;8723;51.502;6.918;2022-11-09T00:47:33;2.38;;;1.70;;
17214;SDS011;8723;51.502;6.918;2022-11-09T00:50:00;2.13;;;1.60;;
17214;SDS011;8723;51.502;6.918;2022-11-09T00:52:27;1.73;;;1.48;;
17214;SDS011;8723;51.502;6.918;2022-11-09T00:54:54;3.90;;;1.70;;
17214;SDS011;8723;51.502;6.918;2022-11-09T00:57:21;2.55;;;1.60;;
17214;SDS011;8723;51.502;6.918;2022-11-09T00:59:48;1.70;;;1.48;;
17214;SDS011;8723;51.502;6.918;2022-11-09T01:02:19;2.10;;;1.48;;
17214;SDS011;8723;51.502;6.918;2022-11-09T01:04:46;1.80;;;1.50;;
17214;SDS011;8723;51.502;6.918;2022-11-09T01:07:13;1.85;;;1.75;;
17214;SDS011;8723;51.502;6.918;2022-11-09T01:09:40;2.17;;;1.83;;
17214;SDS011;8723;51.502;6.918;2022-11-09T01:12:07;1.55;;;1.38;;
17214;SDS011;8723;51.502;6.918;2022-11-09T01:14:35;2.60;;;1.50;;
17214;SDS011;8723;51.502;6.918;2022-11-09T01:17:02;1.80;;;1.43;;
17214;SDS011;8723;51.502;6.918;2022-11-09T01:19:31;2.55;;;1.42;;
17214;SDS011;8723;51.502;6.918;2022-11-09T01:21:58;2.05;;;1.73;;
17214;SDS011;8723;51.502;6.918;2022-11-09T01:24:25;2.22;;;1.60;;
17214;SDS011;8723;51.502;6.918;2022-11-09T01:26:52;2.13;;;1.40;;
17214;SDS011;8723;51.502;6.918;2022-11-09T01:29:19;1.60;;;1.50;;
17214;SDS011;8723;51.502;6.918;2022-11-09T01:31:46;2.92;;;1.63;;
17214;SDS011;8723;51.502;6.918;2022-11-09T01:34:14;2.75;;;1.80;;
17214;SDS011;8723;51.502;6.918;2022-11-09T01:36:42;1.35;;;1.25;;
17214;SDS011;8723;51.502;6.918;2022-11-09T01:39:09;2.58;;;1.50;;
17214;SDS011;8723;51.502;6.918;2022-11-09T01:41:37;2.30;;;1.40;;
17214;SDS011;8723;51.502;6.918;2022-11-09T01:44:08;1.80;;;1.42;;
17214;SDS011;8723;51.502;6.918;2022-11-09T01:46:37;2.30;;;1.38;;
17214;SDS011;8723;51.502;6.918;2022-11-09T01:49:08;2.25;;;1.48;;
17214;SDS011;8723;51.502;6.918;2022-11-09T01:51:37;2.08;;;1.55;;
17214;SDS011;8723;51.502;6.918;2022-11-09T01:54:09;2.33;;;1.30;;
17214;SDS011;8723;51.502;6.918;2022-11-09T01:56:37;2.55;;;1.50;;
17214;SDS011;8723;51.502;6.918;2022-11-09T01:59:06;2.33;;;1.40;;
17214;SDS011;8723;51.502;6.918;2022-11-09T02:01:35;2.10;;;1.60;;
17214;SDS011;8723;51.502;6.918;2022-11-09T02:04:03;1.92;;;1.55;;
17214;SDS011;8723;51.502;6.918;2022-11-09T02:06:31;3.00;;;2.08;;
17214;SDS011;8723;51.502;6.918;2022-11-09T02:09:00;2.10;;;1.73;;
17214;SDS011;8723;51.502;6.918;2022-11-09T02:11:30;2.72;;;1.60;;
17214;SDS011;8723;51.502;6.918;2022-11-09T02:13:58;1.85;;;1.45;;
17214;SDS011;8723;51.502;6.918;2022-11-09T02:16:26;2.25;;;1.63;;
17214;SDS011;8723;51.502;6.918;2022-11-09T02:18:55;2.75;;;1.60;;
17214;SDS011;8723;51.502;6.918;2022-11-09T02:21:24;1.40;;;1.30;;
17214;SDS011;8723;51.502;6.918;2022-11-09T02:23:52;2.77;;;1.40;;
17214;SDS011;8723;51.502;6.918;2022-11-09T02:26:21;2.40;;;1.60;;
17214;SDS011;8723;51.502;6.918;2022-11-09T02:28:50;1.92;;;1.67;;
17214;SDS011;8723;51.502;6.918;2022-11-09T02:31:18;2.17;;;1.40;;
17214;SDS011;8723;51.502;6.918;2022-11-09T02:33:52;3.55;;;1.85;;
17214;SDS011;8723;51.502;6.918;2022-11-09T02:36:19;3.35;;;1.80;;
17214;SDS011;8723;51.502;6.918;2022-11-09T02:38:48;2.95;;;1.50;;
17214;SDS011;8723;51.502;6.918;2022-11-09T02:41:15;2.92;;;1.55;;
17214;SDS011;8723;51.502;6.918;2022-11-09T02:43:43;3.35;;;1.73;;
17214;SDS011;8723;51.502;6.918;2022-11-09T02:46:10;3.55;;;1.70;;
17214;SDS011;8723;51.502;6.918;2022-11-09T02:48:37;2.83;;;1.67;;
17214;SDS011;8723;51.502;6.918;2022-11-09T02:51:04;4.32;;;1.73;;
17214;SDS011;8723;51.502;6.918;2022-11-09T02:53:31;3.08;;;1.63;;
17214;SDS011;8723;51.502;6.918;2022-11-09T02:56:00;4.88;;;1.90;;
17214;SDS011;8723;51.502;6.918;2022-11-09T02:58:27;3.23;;;1.70;;
17214;SDS011;8723;51.502;6.918;2022-11-09T03:00:54;3.38;;;1.85;;
17214;SDS011;8723;51.502;6.918;2022-11-09T03:03:21;5.10;;;1.67;;
17214;SDS011;8723;51.502;6.918;2022-11-09T03:05:49;4.13;;;1.73;;
17214;SDS011;8723;51.502;6.918;2022-11-09T03:08:16;2.43;;;1.50;;
17214;SDS011;8723;51.502;6.918;2022-11-09T03:10:43;2.95;;;1.80;;
17214;SDS011;8723;51.502;6.918;2022-11-09T03:13:11;3.50;;;1.67;;
17214;SDS011;8723;51.502;6.918;2022-11-09T03:15:38;3.38;;;1.80;;
17214;SDS011;8723;51.502;6.918;2022-11-09T03:18:06;4.20;;;1.92;;
17214;SDS011;8723;51.502;6.918;2022-11-09T03:20:33;3.53;;;1.88;;
17214;SDS011;8723;51.502;6.918;2022-11-09T03:23:00;3.65;;;2.00;;
17214;SDS011;8723;51.502;6.918;2022-11-09T03:25:27;3.53;;;1.90;;
17214;SDS011;8723;51.502;6.918;2022-11-09T03:27:57;3.95;;;1.80;;
17214;SDS011;8723;51.502;6.918;2022-11-09T03:30:26;2.88;;;1.48;;
17214;SDS011;8723;51.502;6.918;2022-11-09T03:32:56;4.78;;;1.70;;
17214;SDS011;8723;51.502;6.918;2022-11-09T03:35:23;4.90;;;2.05;;
17214;SDS011;8723;51.502;6.918;2022-11-09T03:37:51;2.73;;;1.70;;
17214;SDS011;8723;51.502;6.918;2022-11-09T03:40:18;6.45;;;1.95;;
17214;SDS011;8723;51.502;6.918;2022-11-09T03:42:46;4.40;;;1.60;;
17214;SDS011;8723;51.502;6.918;2022-11-09T03:45:14;3.08;;;1.77;;
17214;SDS011;8723;51.502;6.918;2022-11-09T03:47:43;3.47;;;1.67;;
17214;SDS011;8723;51.502;6.918;2022-11-09T03:50:10;4.70;;;1.90;;
17214;SDS011;8723;51.502;6.918;2022-11-09T03:52:38;3.25;;;1.80;;
17214;SDS011;8723;51.502;6.918;2022-11-09T03:55:05;4.10;;;1.88;;
17214;SDS011;8723;51.502;6.918;2022-11-09T03:57:32;5.00;;;2.07;;
17214;SDS011;8723;51.502;6.918;2022-11-09T03:59:59;4.75;;;1.85;;
17214;SDS011;8723;51.502;6.918;2022-11-09T04:02:26;5.20;;;1.80;;
17214;SDS011;8723;51.502;6.918;2022-11-09T04:04:55;5.55;;;2.10;;
17214;SDS011;8723;51.502;6.918;2022-11-09T04:07:22;4.20;;;1.50;;
17214;SDS011;8723;51.502;6.918;2022-11-09T04:09:49;4.78;;;2.30;;
17214;SDS011;8723;51.502;6.918;2022-11-09T04:12:16;4.55;;;1.85;;
17214;SDS011;8723;51.502;6.918;2022-11-09T04:14:43;5.80;;;2.05;;
17214;SDS011;8723;51.502;6.918;2022-11-09T04:17:10;5.53;;;1.92;;
17214;SDS011;8723;51.502;6.918;2022-11-09T04:19:37;4.50;;;2.00;;
17214;SDS011;8723;51.502;6.918;2022-11-09T04:22:06;6.85;;;1.90;;
17214;SDS011;8723;51.502;6.918;2022-11-09T04:24:33;4.35;;;1.73;;
17214;SDS011;8723;51.502;6.918;2022-11-09T04:27:00;6.07;;;1.90;;
17214;SDS011;8723;51.502;6.918;2022-11-09T04:29:27;5.37;;;2.40;;
17214;SDS011;8723;51.502;6.918;2022-11-09T04:31:54;4.90;;;2.00;;
17214;SDS011;8723;51.502;6.918;2022-11-09T04:34:22;5.35;;;2.08;;
17214;SDS011;8723;51.502;6.918;2022-11-09T04:36:49;5.93;;;2.10;;
17214;SDS011;8723;51.502;6.918;2022-11-09T04:39:18;4.88;;;1.70;;
17214;SDS011;8723;51.502;6.918;2022-11-09T04:41:45;4.13;;;1.70;;
17214;SDS011;8723;51.502;6.918;2022-11-09T04:44:12;5.70;;;1.97;;
17214;SDS011;8723;51.502;6.918;2022-11-09T04:46:39;5.47;;;1.90;;
17214;SDS011;8723;51.502;6.918;2022-11-09T04:49:06;5.47;;;2.03;;
17214;SDS011;8723;51.502;6.918;2022-11-09T04:51:34;4.80;;;1.80;;
17214;SDS011;8723;51.502;6.918;2022-11-09T04:54:01;6.13;;;2.50;;
17214;SDS011;8723;51.502;6.918;2022-11-09T04:56:29;5.88;;;1.90;;
17214;SDS011;8723;51.502;6.918;2022-11-09T04:58:56;4.68;;;2.17;;
17214;SDS011;8723;51.502;6.918;2022-11-09T05:01:23;4.38;;;1.88;;
17214;SDS011;8723;51.502;6.918;2022-11-09T05:03:50;5.63;;;2.07;;
17214;SDS011;8723;51.502;6.918;2022-11-09T05:06:17;5.65;;;2.05;;
17214;SDS011;8723;51.502;6.918;2022-11-09T05:08:57;5.50;;;2.05;;
17214;SDS011;8723;51.502;6.918;2022-11-09T05:11:24;3.47;;;2.07;;
17214;SDS011;8723;51.502;6.918;2022-11-09T05:13:53;8.77;;;2.47;;
17214;SDS011;8723;51.502;6.918;2022-11-09T05:16:20;6.05;;;2.20;;
17214;SDS011;8723;51.502;6.918;2022-11-09T05:18:48;4.13;;;2.00;;
17214;SDS011;8723;51.502;6.918;2022-11-09T05:21:15;6.90;;;2.50;;
17214;SDS011;8723;51.502;6.918;2022-11-09T05:23:42;5.18;;;2.05;;
17214;SDS011;8723;51.502;6.918;2022-11-09T05:26:24;5.60;;;2.10;;
17214;SDS011;8723;51.502;6.918;2022-11-09T05:28:53;4.73;;;2.00;;
17214;SDS011;8723;51.502;6.918;2022-11-09T05:31:21;4.70;;;2.13;;
17214;SDS011;8723;51.502;6.918;2022-11-09T05:33:48;4.75;;;2.20;;
17214;SDS011;8723;51.502;6.918;2022-11-09T05:36:16;4.95;;;2.17;;
17214;SDS011;8723;51.502;6.918;2022-11-09T05:38:43;5.97;;;2.20;;
17214;SDS011;8723;51.502;6.918;2022-11-09T05:41:10;6.00;;;2.10;;
17214;SDS011;8723;51.502;6.918;2022-11-09T05:43:38;4.43;;;2.00;;
17214;SDS011;8723;51.502;6.918;2022-11-09T05:46:06;4.18;;;2.08;;
17214;SDS011;8723;51.502;6.918;2022-11-09T05:48:34;6.32;;;2.25;;
17214;SDS011;8723;51.502;6.918;2022-11-09T05:51:01;5.50;;;1.63;;
17214;SDS011;8723;51.502;6.918;2022-11-09T05:53:28;5.93;;;2.30;;
17214;SDS011;8723;51.502;6.918;2022-11-09T05:55:59;7.03;;;2.35;;
17214;SDS011;8723;51.502;6.918;2022-11-09T05:58:26;5.30;;;2.13;;
17214;SDS011;8723;51.502;6.918;2022-11-09T06:00:54;6.47;;;1.93;;
17214;SDS011;8723;51.502;6.918;2022-11-09T06:03:22;3.83;;;1.90;;
17214;SDS011;8723;51.502;6.918;2022-11-09T06:05:49;4.78;;;2.08;;
17214;SDS011;8723;51.502;6.918;2022-11-09T06:08:16;5.05;;;2.45;;
17214;SDS011;8723;51.502;6.918;2022-11-09T06:10:43;5.30;;;2.10;;
17214;SDS011;8723;51.502;6.918;2022-11-09T06:13:10;6.32;;;2.55;;
17214;SDS011;8723;51.502;6.918;2022-11-09T06:15:37;6.57;;;2.90;;
17214;SDS011;8723;51.502;6.918;2022-11-09T06:18:05;6.32;;;2.70;;
17214;SDS011;8723;51.502;6.918;2022-11-09T06:20:33;6.85;;;2.50;;
17214;SDS011;8723;51.502;6.918;2022-11-09T06:23:01;7.78;;;3.00;;
17214;SDS011;8723;51.502;6.918;2022-11-09T06:25:29;5.63;;;2.75;;
17214;SDS011;8723;51.502;6.918;2022-11-09T06:27:56;6.10;;;2.63;;
17214;SDS011;8723;51.502;6.918;2022-11-09T06:30:24;6.75;;;2.47;;
17214;SDS011;8723;51.502;6.918;2022-11-09T06:32:51;5.38;;;2.22;;
17214;SDS011;8723;51.502;6.918;2022-11-09T06:35:23;5.28;;;1.92;;
17214;SDS011;8723;51.502;6.918;2022-11-09T06:37:54;6.95;;;2.30;;
17214;SDS011;8723;51.502;6.918;2022-11-09T06:40:21;7.22;;;2.40;;
17214;SDS011;8723;51.502;6.918;2022-11-09T06:42:48;4.80;;;2.40;;
17214;SDS011;8723;51.502;6.918;2022-11-09T06:45:15;5.90;;;2.40;;
17214;SDS011;8723;51.502;6.918;2022-11-09T06:47:42;4.53;;;2.20;;
17214;SDS011;8723;51.502;6.918;2022-11-09T06:50:09;6.32;;;2.40;;
17214;SDS011;8723;51.502;6.918;2022-11-09T06:52:36;6.53;;;2.42;;
17214;SDS011;8723;51.502;6.918;2022-11-09T06:55:06;5.78;;;2.25;;
17214;SDS011;8723;51.502;6.918;2022-11-09T06:57:33;5.05;;;2.20;;
17214;SDS011;8723;51.502;6.918;2022-11-09T07:00:00;7.20;;;2.42;;
17214;SDS011;8723;51.502;6.918;2022-11-09T07:02:27;6.63;;;2.30;;
17214;SDS011;8723;51.502;6.918;2022-11-09T07:04:54;6.05;;;2.50;;
17214;SDS011;8723;51.502;6.918;2022-11-09T07:07:21;6.60;;;2.30;;
17214;SDS011;8723;51.502;6.918;2022-11-09T07:09:49;6.22;;;2.47;;
17214;SDS011;8723;51.502;6.918;2022-11-09T07:12:17;6.65;;;2.60;;
17214;SDS011;8723;51.502;6.918;2022-11-09T07:14:44;5.80;;;2.33;;
17214;SDS011;8723;51.502;6.918;2022-11-09T07:17:11;6.50;;;2.83;;
17214;SDS011;8723;51.502;6.918;2022-11-09T07:19:38;6.03;;;2.45;;
17214;SDS011;8723;51.502;6.918;2022-11-09T07:22:05;6.65;;;2.80;;
17214;SDS011;8723;51.502;6.918;2022-11-09T07:24:32;12.05;;;3.28;;
17214;SDS011;8723;51.502;6.918;2022-11-09T07:27:00;6.63;;;2.78;;
17214;SDS011;8723;51.502;6.918;2022-11-09T07:29:28;4.85;;;2.10;;
17214;SDS011;8723;51.502;6.918;2022-11-09T07:31:55;4.20;;;2.30;;
17214;SDS011;8723;51.502;6.918;2022-11-09T07:34:22;4.28;;;2.15;;
17214;SDS011;8723;51.502;6.918;2022-11-09T07:36:51;5.00;;;1.98;;
17214;SDS011;8723;51.502;6.918;2022-11-09T07:39:18;3.63;;;1.75;;
17214;SDS011;8723;51.502;6.918;2022-11-09T07:41:46;4.45;;;2.15;;
17214;SDS011;8723;51.502;6.918;2022-11-09T07:44:13;3.25;;;1.80;;
17214;SDS011;8723;51.502;6.918;2022-11-09T07:46:43;5.35;;;1.98;;
17214;SDS011;8723;51.502;6.918;2022-11-09T07:49:12;5.60;;;2.10;;
17214;SDS011;8723;51.502;6.918;2022-11-09T07:51:39;4.00;;;1.70;;
17214;SDS011;8723;51.502;6.918;2022-11-09T07:54:06;4.20;;;1.77;;
17214;SDS011;8723;51.502;6.918;2022-11-09T07:56:33;4.35;;;1.75;;
17214;SDS011;8723;51.502;6.918;2022-11-09T07:59:00;5.38;;;1.90;;
17214;SDS011;8723;51.502;6.918;2022-11-09T08:01:28;4.20;;;2.20;;
17214;SDS011;8723;51.502;6.918;2022-11-09T08:03:56;6.27;;;2.30;;
17214;SDS011;8723;51.502;6.918;2022-11-09T08:06:23;4.38;;;2.20;;
17214;SDS011;8723;51.502;6.918;2022-11-09T08:08:52;3.85;;;2.10;;
17214;SDS011;8723;51.502;6.918;2022-11-09T08:11:19;4.80;;;2.20;;
17214;SDS011;8723;51.502;6.918;2022-11-09T08:13:46;3.55;;;1.88;;
17214;SDS011;8723;51.502;6.918;2022-11-09T08:16:13;3.33;;;1.50;;
17214;SDS011;8723;51.502;6.918;2022-11-09T08:18:40;5.45;;;2.03;;
17214;SDS011;8723;51.502;6.918;2022-11-09T08:21:09;3.25;;;1.70;;
17214;SDS011;8723;51.502;6.918;2022-11-09T08:23:36;4.07;;;1.75;;
17214;SDS011;8723;51.502;6.918;2022-11-09T08:26:04;3.97;;;1.42;;
17214;SDS011;8723;51.502;6.918;2022-11-09T08:28:31;4.10;;;1.58;;
17214;SDS011;8723;51.502;6.918;2022-11-09T08:31:00;3.70;;;1.60;;
17214;SDS011;8723;51.502;6.918;2022-11-09T08:33:27;4.65;;;1.70;;
17214;SDS011;8723;51.502;6.918;2022-11-09T08:35:55;4.15;;;1.67;;
17214;SDS011;8723;51.502;6.918;2022-11-09T08:38:23;3.75;;;1.48;;
17214;SDS011;8723;51.502;6.918;2022-11-09T08:40:54;2.42;;;1.42;;
17214;SDS011;8723;51.502;6.918;2022-11-09T08:43:22;4.25;;;1.55;;
17214;SDS011;8723;51.502;6.918;2022-11-09T08:45:49;3.08;;;1.42;;
17214;SDS011;8723;51.502;6.918;2022-11-09T08:48:16;3.47;;;1.17;;
17214;SDS011;8723;51.502;6.918;2022-11-09T08:50:43;4.45;;;1.63;;
17214;SDS011;8723;51.502;6.918;2022-11-09T08:53:10;2.42;;;1.30;;
17214;SDS011;8723;51.502;6.918;2022-11-09T08:55:39;2.35;;;1.50;;
17214;SDS011;8723;51.502;6.918;2022-11-09T08:58:06;3.08;;;1.55;;
17214;SDS011;8723;51.502;6.918;2022-11-09T09:00:33;1.52;;;1.20;;
17214;SDS011;8723;51.502;6.918;2022-11-09T09:03:02;3.10;;;1.60;;
17214;SDS011;8723;51.502;6.918;2022-11-09T09:05:29;5.35;;;1.92;;
17214;SDS011;8723;51.502;6.918;2022-11-09T09:07:57;3.63;;;1.63;;
17214;SDS011;8723;51.502;6.918;2022-11-09T09:10:24;3.95;;;1.60;;
17214;SDS011;8723;51.502;6.918;2022-11-09T09:12:53;3.92;;;1.70;;
17214;SDS011;8723;51.502;6.918;2022-11-09T09:15:20;2.67;;;1.60;;
17214;SDS011;8723;51.502;6.918;2022-11-09T09:17:47;2.83;;;1.50;;
17214;SDS011;8723;51.502;6.918;2022-11-09T09:20:15;4.25;;;1.77;;
17214;SDS011;8723;51.502;6.918;2022-11-09T09:22:42;4.93;;;1.73;;
17214;SDS011;8723;51.502;6.918;2022-11-09T09:25:09;3.80;;;1.67;;
17214;SDS011;8723;51.502;6.918;2022-11-09T09:27:36;3.70;;;1.45;;
17214;SDS011;8723;51.502;6.918;2022-11-09T09:30:05;6.63;;;2.00;;
17214;SDS011;8723;51.502;6.918;2022-11-09T09:32:33;4.40;;;1.60;;
17214;SDS011;8723;51.502;6.918;2022-11-09T09:35:00;2.83;;;1.50;;
17214;SDS011;8723;51.502;6.918;2022-11-09T09:37:27;4.27;;;1.67;;
17214;SDS011;8723;51.502;6.918;2022-11-09T09:39:54;3.03;;;1.42;;
17214;SDS011;8723;51.502;6.918;2022-11-09T09:42:23;4.50;;;1.60;;
17214;SDS011;8723;51.502;6.918;2022-11-09T09:44:52;4.33;;;1.80;;
17214;SDS011;8723;51.502;6.918;2022-11-09T09:47:23;5.15;;;1.98;;
17214;SDS011;8723;51.502;6.918;2022-11-09T09:49:52;4.55;;;1.80;;
17214;SDS011;8723;51.502;6.918;2022-11-09T09:52:21;4.27;;;1.60;;
17214;SDS011;8723;51.502;6.918;2022-11-09T09:54:51;3.47;;;1.48;;
17214;SDS011;8723;51.502;6.918;2022-11-09T09:57:21;4.20;;;1.90;;
17214;SDS011;8723;51.502;6.918;2022-11-09T09:59:49;4.10;;;1.67;;
17214;SDS011;8723;51.502;6.918;2022-11-09T10:02:19;3.10;;;1.50;;
17214;SDS011;8723;51.502;6.918;2022-11-09T10:04:48;4.07;;;1.58;;
17214;SDS011;8723;51.502;6.918;2022-11-09T10:07:17;4.80;;;1.65;;
17214;SDS011;8723;51.502;6.918;2022-11-09T10:09:50;4.45;;;1.45;;
17214;SDS011;8723;51.502;6.918;2022-11-09T10:12:21;3.65;;;1.63;;
17214;SDS011;8723;51.502;6.918;2022-11-09T10:17:40;4.47;;;1.88;;
17214;SDS011;8723;51.502;6.918;2022-11-09T10:20:14;3.47;;;1.55;;
17214;SDS011;8723;51.502;6.918;2022-11-09T10:22:47;3.40;;;1.30;;
17214;SDS011;8723;51.502;6.918;2022-11-09T10:25:18;4.07;;;1.80;;
17214;SDS011;8723;51.502;6.918;2022-11-09T10:27:48;4.07;;;1.55;;
17214;SDS011;8723;51.502;6.918;2022-11-09T10:30:17;4.60;;;1.83;;
17214;SDS011;8723;51.502;6.918;2022-11-09T10:32:45;4.88;;;1.77;;
17214;SDS011;8723;51.502;6.918;2022-11-09T10:35:16;4.70;;;1.88;;
17214;SDS011;8723;51.502;6.918;2022-11-09T10:37:45;4.90;;;1.52;;
17214;SDS011;8723;51.502;6.918;2022-11-09T10:40:15;4.27;;;1.53;;
17214;SDS011;8723;51.502;6.918;2022-11-09T10:42:43;3.92;;;1.60;;
17214;SDS011;8723;51.502;6.918;2022-11-09T10:45:11;4.27;;;1.60;;
17214;SDS011;8723;51.502;6.918;2022-11-09T10:47:45;4.25;;;1.35;;
17214;SDS011;8723;51.502;6.918;2022-11-09T10:50:16;4.03;;;1.63;;
17214;SDS011;8723;51.502;6.918;2022-11-09T10:52:47;4.15;;;1.80;;
17214;SDS011;8723;51.502;6.918;2022-11-09T10:55:15;6.60;;;1.77;;
17214;SDS011;8723;51.502;6.918;2022-11-09T10:57:49;4.80;;;1.60;;
17214;SDS011;8723;51.502;6.918;2022-11-09T11:00:19;5.13;;;1.60;;
17214;SDS011;8723;51.502;6.918;2022-11-09T11:02:47;6.53;;;1.70;;
17214;SDS011;8723;51.502;6.918;2022-11-09T11:05:25;4.43;;;1.73;;
17214;SDS011;8723;51.502;6.918;2022-11-09T11:07:52;4.82;;;1.60;;
17214;SDS011;8723;51.502;6.918;2022-11-09T11:10:20;4.20;;;1.60;;
17214;SDS011;8723;51.502;6.918;2022-11-09T11:12:50;5.25;;;1.70;;
17214;SDS011;8723;51.502;6.918;2022-11-09T11:15:21;5.70;;;1.75;;
17214;SDS011;8723;51.502;6.918;2022-11-09T11:17:48;7.97;;;1.90;;
17214;SDS011;8723;51.502;6.918;2022-11-09T11:20:22;5.18;;;1.60;;
17214;SDS011;8723;51.502;6.918;2022-11-09T11:22:53;4.78;;;1.70;;
17214;SDS011;8723;51.502;6.918;2022-11-09T11:25:31;4.70;;;1.83;;
17214;SDS011;8723;51.502;6.918;2022-11-09T11:28:00;4.15;;;1.60;;
17214;SDS011;8723;51.502;6.918;2022-11-09T11:30:30;5.20;;;1.50;;
17214;SDS011;8723;51.502;6.918;2022-11-09T11:33:00;4.82;;;1.70;;
17214;SDS011;8723;51.502;6.918;2022-11-09T11:35:29;4.65;;;1.50;;
17214;SDS011;8723;51.502;6.918;2022-11-09T11:38:05;6.35;;;1.67;;
17214;SDS011;8723;51.502;6.918;2022-11-09T11:40:36;5.45;;;1.50;;
17214;SDS011;8723;51.502;6.918;2022-11-09T11:43:10;6.72;;;1.60;;
17214;SDS011;8723;51.502;6.918;2022-11-09T11:45:42;4.53;;;1.33;;
17214;SDS011;8723;51.502;6.918;2022-11-09T11:48:19;5.22;;;1.83;;
17214;SDS011;8723;51.502;6.918;2022-11-09T11:50:48;4.18;;;1.73;;
17214;SDS011;8723;51.502;6.918;2022-11-09T11:53:23;4.60;;;1.73;;
17214;SDS011;8723;51.502;6.918;2022-11-09T11:55:58;4.72;;;1.50;;
17214;SDS011;8723;51.502;6.918;2022-11-09T11:58:31;5.00;;;1.70;;
17214;SDS011;8723;51.502;6.918;2022-11-09T12:01:04;3.83;;;1.50;;
17214;SDS011;8723;51.502;6.918;2022-11-09T12:03:37;4.43;;;1.73;;
17214;SDS011;8723;51.502;6.918;2022-11-09T12:09:00;5.50;;;1.60;;
17214;SDS011;8723;51.502;6.918;2022-11-09T12:11:32;5.60;;;1.77;;
17214;SDS011;8723;51.502;6.918;2022-11-09T12:14:07;5.45;;;1.70;;
17214;SDS011;8723;51.502;6.918;2022-11-09T12:16:37;6.75;;;1.90;;
17214;SDS011;8723;51.502;6.918;2022-11-09T12:19:14;3.83;;;1.58;;
17214;SDS011;8723;51.502;6.918;2022-11-09T12:21:46;4.30;;;1.77;;
17214;SDS011;8723;51.502;6.918;2022-11-09T12:24:20;5.20;;;1.85;;
17214;SDS011;8723;51.502;6.918;2022-11-09T12:26:55;6.38;;;1.80;;
17214;SDS011;8723;51.502;6.918;2022-11-09T12:29:24;4.63;;;1.90;;
17214;SDS011;8723;51.502;6.918;2022-11-09T12:31:57;7.60;;;2.10;;
17214;SDS011;8723;51.502;6.918;2022-11-09T12:34:26;6.30;;;1.90;;
17214;SDS011;8723;51.502;6.918;2022-11-09T12:36:55;6.38;;;1.88;;
17214;SDS011;8723;51.502;6.918;2022-11-09T12:39:27;8.02;;;1.98;;
17214;SDS011;8723;51.502;6.918;2022-11-09T12:41:58;5.90;;;2.13;;
17214;SDS011;8723;51.502;6.918;2022-11-09T12:44:26;5.97;;;2.13;;
17214;SDS011;8723;51.502;6.918;2022-11-09T12:46:56;4.60;;;1.77;;
17214;SDS011;8723;51.502;6.918;2022-11-09T12:49:33;7.38;;;1.90;;
17214;SDS011;8723;51.502;6.918;2022-11-09T12:52:01;6.45;;;3.42;;
17214;SDS011;8723;51.502;6.918;2022-11-09T12:54:30;4.70;;;3.50;;
17214;SDS011;8723;51.502;6.918;2022-11-09T12:56:58;7.63;;;3.70;;
17214;SDS011;8723;51.502;6.918;2022-11-09T12:59:33;6.43;;;2.53;;
17214;SDS011;8723;51.502;6.918;2022-11-09T13:02:01;6.78;;;2.83;;
17214;SDS011;8723;51.502;6.918;2022-11-09T13:04:28;9.03;;;3.17;;
17214;SDS011;8723;51.502;6.918;2022-11-09T13:09:43;12.15;;;4.78;;
17214;SDS011;8723;51.502;6.918;2022-11-09T13:12:16;9.82;;;4.28;;
17214;SDS011;8723;51.502;6.918;2022-11-09T13:14:44;15.05;;;7.13;;
17214;SDS011;8723;51.502;6.918;2022-11-09T13:20:00;11.52;;;5.53;;
17214;SDS011;8723;51.502;6.918;2022-11-09T13:28:15;8.40;;;4.40;;
17214;SDS011;8723;51.502;6.918;2022-11-09T13:30:56;9.30;;;4.53;;
17214;SDS011;8723;51.502;6.918;2022-11-09T13:33:24;8.20;;;3.55;;
17214;SDS011;8723;51.502;6.918;2022-11-09T13:35:59;8.98;;;3.60;;
17214;SDS011;8723;51.502;6.918;2022-11-09T13:38:38;9.43;;;5.78;;
17214;SDS011;8723;51.502;6.918;2022-11-09T13:43:47;7.00;;;3.00;;
17214;SDS011;8723;51.502;6.918;2022-11-09T13:46:34;7.57;;;3.72;;
17214;SDS011;8723;51.502;6.918;2022-11-09T13:49:05;13.65;;;7.60;;
17214;SDS011;8723;51.502;6.918;2022-11-09T13:51:50;10.02;;;4.63;;
17214;SDS011;8723;51.502;6.918;2022-11-09T13:54:27;8.07;;;5.07;;
17214;SDS011;8723;51.502;6.918;2022-11-09T13:56:55;9.98;;;4.75;;
17214;SDS011;8723;51.502;6.918;2022-11-09T13:59:23;7.78;;;3.40;;
17214;SDS011;8723;51.502;6.918;2022-11-09T14:01:54;9.32;;;4.60;;
17214;SDS011;8723;51.502;6.918;2022-11-09T14:04:23;7.80;;;3.00;;
17214;SDS011;8723;51.502;6.918;2022-11-09T14:06:52;6.90;;;2.55;;
17214;SDS011;8723;51.502;6.918;2022-11-09T14:09:22;7.57;;;2.90;;
17214;SDS011;8723;51.502;6.918;2022-11-09T14:11:56;10.45;;;3.00;;
17214;SDS011;8723;51.502;6.918;2022-11-09T14:14:41;7.88;;;2.78;;
17214;SDS011;8723;51.502;6.918;2022-11-09T14:17:14;6.22;;;2.60;;
17214;SDS011;8723;51.502;6.918;2022-11-09T14:19:45;7.07;;;3.05;;
17214;SDS011;8723;51.502;6.918;2022-11-09T14:22:13;5.30;;;2.50;;
17214;SDS011;8723;51.502;6.918;2022-11-09T14:24:41;3.88;;;2.10;;
17214;SDS011;8723;51.502;6.918;2022-11-09T14:27:14;6.75;;;2.17;;
17214;SDS011;8723;51.502;6.918;2022-11-09T14:29:46;4.57;;;2.10;;
17214;SDS011;8723;51.502;6.918;2022-11-09T14:32:25;5.70;;;2.05;;
17214;SDS011;8723;51.502;6.918;2022-11-09T14:35:07;6.47;;;2.03;;
17214;SDS011;8723;51.502;6.918;2022-11-09T14:37:35;6.80;;;2.17;;
17214;SDS011;8723;51.502;6.918;2022-11-09T14:40:02;4.18;;;2.10;;
17214;SDS011;8723;51.502;6.918;2022-11-09T14:42:30;4.60;;;1.83;;
17214;SDS011;8723;51.502;6.918;2022-11-09T14:44:57;5.45;;;2.20;;
17214;SDS011;8723;51.502;6.918;2022-11-09T14:47:27;6.28;;;2.08;;
17214;SDS011;8723;51.502;6.918;2022-11-09T14:49:54;6.30;;;2.40;;
17214;SDS011;8723;51.502;6.918;2022-11-09T14:52:24;4.63;;;2.00;;
17214;SDS011;8723;51.502;6.918;2022-11-09T14:54:52;4.18;;;2.20;;
17214;SDS011;8723;51.502;6.918;2022-11-09T14:57:19;4.80;;;1.90;;
17214;SDS011;8723;51.502;6.918;2022-11-09T14:59:48;4.90;;;2.03;;
17214;SDS011;8723;51.502;6.918;2022-11-09T15:02:16;6.88;;;2.00;;
17214;SDS011;8723;51.502;6.918;2022-11-09T15:04:52;4.78;;;1.80;;
17214;SDS011;8723;51.502;6.918;2022-11-09T15:07:19;6.05;;;2.05;;
17214;SDS011;8723;51.502;6.918;2022-11-09T15:09:48;6.95;;;2.03;;
17214;SDS011;8723;51.502;6.918;2022-11-09T15:12:16;7.50;;;2.10;;
17214;SDS011;8723;51.502;6.918;2022-11-09T15:14:46;4.57;;;2.10;;
17214;SDS011;8723;51.502;6.918;2022-11-09T15:17:15;6.10;;;1.83;;
17214;SDS011;8723;51.502;6.918;2022-11-09T15:19:47;5.38;;;2.05;;
17214;SDS011;8723;51.502;6.918;2022-11-09T15:22:39;6.32;;;2.35;;
17214;SDS011;8723;51.502;6.918;2022-11-09T15:25:17;6.72;;;2.50;;
17214;SDS011;8723;51.502;6.918;2022-11-09T15:27:53;4.97;;;2.15;;
17214;SDS011;8723;51.502;6.918;2022-11-09T15:30:25;4.00;;;2.30;;